Time;durP1;ratioP1;P1;durP2;ratioP2;P2;SDS_P1;SDS_P2;PMS_P1;PMS_P2;Temp;Humidity;BMP_temperature;BMP_pressure;BME280_temperature;BME280_humidity;BME280_pressure;Samples;Min_cycle;Max_cycle;Signal;HPM_P1;HPM_P2
2022/11/30 00:00:54;;;;;;;16.40;7.70;;;;;;;7.72;100.00;102284.09;5058314;28;20387;-75
2022/11/30 00:03:20;;;;;;;14.95;6.45;;;;;;;7.61;100.00;102269.00;5057217;28;20025;-74
2022/11/30 00:05:46;;;;;;;12.38;7.88;;;;;;;7.68;100.00;102287.03;5060373;28;20472;-76
2022/11/30 00:08:12;;;;;;;15.85;7.65;;;;;;;7.49;100.00;102272.41;5058213;28;20487;-76
2022/11/30 00:10:39;;;;;;;11.48;6.13;;;;;;;7.45;100.00;102260.41;5056281;28;20040;-75
2022/11/30 00:13:04;;;;;;;13.82;7.03;;;;;;;7.60;100.00;102282.25;5042006;28;20062;-75
2022/11/30 00:15:31;;;;;;;16.17;7.68;;;;;;;7.60;100.00;102285.72;5056321;28;20079;-76
2022/11/30 00:17:58;;;;;;;11.68;7.75;;;;;;;7.61;100.00;102286.56;5058130;28;20044;-76
2022/11/30 00:20:24;;;;;;;13.77;6.57;;;;;;;7.56;100.00;102272.88;5057889;28;20115;-75
2022/11/30 00:22:50;;;;;;;9.52;6.05;;;;;;;7.57;100.00;102280.63;5047459;28;20045;-76
2022/11/30 00:25:15;;;;;;;20.08;8.10;;;;;;;7.60;100.00;102279.63;5055603;28;20539;-75
2022/11/30 00:27:41;;;;;;;11.02;6.90;;;;;;;7.50;100.00;102265.38;5056353;28;20484;-75
2022/11/30 00:30:07;;;;;;;17.60;8.43;;;;;;;7.46;100.00;102262.06;5057531;28;20032;-74
2022/11/30 00:32:33;;;;;;;19.15;8.30;;;;;;;7.47;100.00;102269.03;5053876;28;20086;-77
2022/11/30 00:34:58;;;;;;;13.02;8.00;;;;;;;7.59;100.00;102285.81;5040544;28;20021;-75
2022/11/30 00:37:24;;;;;;;18.48;6.57;;;;;;;7.57;100.00;102285.06;5057732;28;20024;-75
2022/11/30 00:39:49;;;;;;;16.65;7.28;;;;;;;7.47;100.00;102273.41;5055748;28;20025;-76
2022/11/30 00:42:14;;;;;;;15.43;7.53;;;;;;;7.46;100.00;102282.25;5056902;28;20037;-75
2022/11/30 00:44:40;;;;;;;11.63;8.63;;;;;;;7.24;100.00;102280.94;5058237;28;20046;-74
2022/11/30 00:47:05;;;;;;;17.45;8.50;;;;;;;7.12;100.00;102260.66;5057866;28;20475;-75
2022/11/30 00:49:32;;;;;;;10.77;6.72;;;;;;;7.28;100.00;102287.69;5057781;28;20514;-76
2022/11/30 00:51:58;;;;;;;23.15;10.93;;;;;;;7.31;100.00;102290.13;5058291;28;20548;-75
2022/11/30 00:54:23;;;;;;;15.20;8.43;;;;;;;7.27;100.00;102286.00;5056752;28;20033;-76
2022/11/30 00:56:49;;;;;;;16.52;7.13;;;;;;;7.26;100.00;102291.34;5026053;28;20127;-76
2022/11/30 00:59:14;;;;;;;14.82;7.68;;;;;;;7.32;100.00;102304.97;5055818;28;20059;-75
2022/11/30 01:01:39;;;;;;;13.18;7.32;;;;;;;7.26;100.00;102302.69;5056183;28;20626;-76
2022/11/30 01:04:05;;;;;;;11.80;7.30;;;;;;;7.08;100.00;102299.41;5056978;28;20455;-75
2022/11/30 01:06:30;;;;;;;13.30;8.27;;;;;;;7.02;100.00;102278.75;5064826;28;20424;-75
2022/11/30 01:08:57;;;;;;;21.48;9.02;;;;;;;7.11;100.00;102298.38;5038508;28;20119;-75
2022/11/30 01:11:25;;;;;;;13.80;9.50;;;;;;;6.83;100.00;102284.25;5062141;28;20098;-74
2022/11/30 01:13:52;;;;;;;10.05;7.07;;;;;;;6.94;100.00;102296.75;5056974;28;20021;-75
2022/11/30 01:16:21;;;;;;;14.15;8.07;;;;;;;6.98;100.00;102299.09;5058404;28;20582;-76
2022/11/30 01:18:47;;;;;;;11.40;6.22;;;;;;;6.88;100.00;102281.34;5061907;28;20056;-74
2022/11/30 01:21:16;;;;;;;14.48;8.15;;;;;;;7.07;100.00;102302.09;5059646;28;20123;-75
2022/11/30 01:23:41;;;;;;;14.65;6.90;;;;;;;7.08;100.00;102301.19;5060932;28;20020;-76
2022/11/30 01:26:08;;;;;;;8.70;5.97;;;;;;;7.13;100.00;102312.25;5060542;28;20033;-76
2022/11/30 01:28:33;;;;;;;14.45;7.20;;;;;;;7.06;100.00;102310.94;5062151;28;20032;-75
2022/11/30 01:31:10;;;;;;;12.27;6.15;;;;;;;7.02;100.00;102306.81;5061143;28;20498;-75
2022/11/30 01:33:35;;;;;;;13.75;6.70;;;;;;;6.98;100.00;102306.13;5058293;28;20124;-75
2022/11/30 01:36:02;;;;;;;14.18;7.18;;;;;;;7.03;100.00;102317.19;5060104;28;20037;-76
2022/11/30 01:38:35;;;;;;;13.32;6.95;;;;;;;6.84;100.00;102296.44;5061259;28;20028;-76
2022/11/30 01:41:01;;;;;;;9.95;6.88;;;;;;;7.04;100.00;102318.06;5061001;28;20029;-75
2022/11/30 01:43:48;;;;;;;16.52;7.78;;;;;;;7.13;100.00;102328.00;5058978;28;20120;-75
2022/11/30 01:46:31;;;;;;;12.82;6.60;;;;;;;7.19;100.00;102332.91;5060985;28;20492;-74
2022/11/30 01:49:28;;;;;;;11.65;6.85;;;;;;;7.22;100.00;102337.94;5059191;28;20029;-77
2022/11/30 01:52:16;;;;;;;13.00;7.07;;;;;;;7.15;100.00;102323.50;5041875;28;20047;-75
2022/11/30 01:54:53;;;;;;;11.45;5.57;;;;;;;7.27;100.00;102340.28;5060879;28;20087;-75
2022/11/30 01:57:25;;;;;;;11.45;5.97;;;;;;;7.31;100.00;102342.66;5061104;28;20564;-76
2022/11/30 01:59:53;;;;;;;10.32;5.07;;;;;;;7.20;100.00;102313.56;5060539;28;20107;-75
2022/11/30 02:02:23;;;;;;;10.45;6.28;;;;;;;7.34;100.00;102331.97;5060055;28;20115;-75
2022/11/30 02:04:49;;;;;;;10.73;6.85;;;;;;;7.29;100.00;102318.25;5076372;28;20480;-75
2022/11/30 02:07:14;;;;;;;11.63;8.20;;;;;;;7.32;100.00;102320.72;5044130;28;20036;-75
2022/11/30 02:09:44;;;;;;;9.95;5.57;;;;;;;7.36;100.00;102326.59;5059027;28;20024;-75
2022/11/30 02:12:33;;;;;;;6.43;4.72;;;;;;;7.39;100.00;102332.53;5060991;28;20035;-75
2022/11/30 02:15:07;;;;;;;14.13;7.40;;;;;;;7.38;100.00;102332.63;5060508;28;20070;-75
2022/11/30 02:18:05;;;;;;;13.43;7.38;;;;;;;7.39;100.00;102331.69;5059660;28;20824;-76
2022/11/30 02:20:41;;;;;;;10.43;5.25;;;;;;;7.39;100.00;102334.31;5060324;28;20028;-77
2022/11/30 02:23:33;;;;;;;10.88;6.10;;;;;;;7.32;100.00;102318.09;5058909;28;20021;-75
2022/11/30 02:26:19;;;;;;;7.28;5.38;;;;;;;7.37;100.00;102320.44;5059684;28;20058;-75
2022/11/30 02:29:05;;;;;;;7.72;5.72;;;;;;;7.45;100.00;102336.59;5057773;28;20036;-75
2022/11/30 02:31:42;;;;;;;9.55;5.60;;;;;;;7.40;100.00;102323.72;5060231;28;20017;-76
2022/11/30 02:34:12;;;;;;;9.93;5.93;;;;;;;7.50;100.00;102331.88;5065582;28;20111;-76
2022/11/30 02:36:37;;;;;;;13.75;6.75;;;;;;;7.44;100.00;102326.16;5060365;28;20063;-75
2022/11/30 02:39:04;;;;;;;9.38;5.50;;;;;;;7.40;100.00;102325.50;5041220;28;20057;-75
2022/11/30 02:41:39;;;;;;;14.07;7.03;;;;;;;7.37;100.00;102304.69;5042671;28;20443;-75
2022/11/30 02:44:07;;;;;;;11.45;6.78;;;;;;;7.47;100.00;102331.22;5057589;28;20581;-74
2022/11/30 02:46:43;;;;;;;10.18;6.70;;;;;;;7.43;100.00;102321.84;5060018;28;20043;-74
2022/11/30 02:49:18;;;;;;;8.45;5.13;;;;;;;7.49;100.00;102324.94;5058878;28;20081;-74
2022/11/30 02:51:45;;;;;;;9.10;6.50;;;;;;;7.49;100.00;102326.72;5060837;28;20020;-76
2022/11/30 02:54:11;;;;;;;9.77;6.18;;;;;;;7.32;100.00;102307.59;5057770;28;20035;-75
2022/11/30 02:56:36;;;;;;;14.48;6.20;;;;;;;7.34;100.00;102305.72;5059058;28;20036;-76
2022/11/30 02:59:01;;;;;;;13.80;6.10;;;;;;;7.45;100.00;102325.19;5042581;28;20029;-75
2022/11/30 03:01:27;;;;;;;8.93;6.18;;;;;;;7.37;100.00;102312.56;5059608;28;20123;-75
2022/11/30 03:03:52;;;;;;;11.25;6.88;;;;;;;7.43;100.00;102325.31;5058035;28;20382;-75
2022/11/30 03:06:17;;;;;;;10.02;5.45;;;;;;;7.36;100.00;102308.22;5048300;28;20039;-75
2022/11/30 03:08:43;;;;;;;12.93;5.63;;;;;;;7.44;100.00;102332.25;5058183;28;20024;-76
2022/11/30 03:11:08;;;;;;;8.65;6.43;;;;;;;7.40;100.00;102330.75;5058867;28;20033;-75
2022/11/30 03:13:34;;;;;;;9.95;6.63;;;;;;;7.42;100.00;102328.88;5057390;28;20040;-74
2022/11/30 03:16:11;;;;;;;14.70;5.90;;;;;;;7.41;100.00;102330.66;5041806;28;20480;-76
2022/11/30 03:18:37;;;;;;;16.38;7.60;;;;;;;7.24;100.00;102307.19;5060302;28;20059;-75
2022/11/30 03:21:07;;;;;;;12.52;6.18;;;;;;;7.34;100.00;102325.88;5057747;28;20051;-75
2022/11/30 03:23:32;;;;;;;9.25;5.60;;;;;;;7.26;100.00;102315.00;5056923;28;20032;-76
2022/11/30 03:25:58;;;;;;;15.73;8.27;;;;;;;7.25;100.00;102329.91;5057067;28;20032;-77
2022/11/30 03:28:24;;;;;;;12.07;6.97;;;;;;;7.11;100.00;102324.63;5058365;28;20029;-75
2022/11/30 03:30:49;;;;;;;12.07;6.82;;;;;;;7.04;100.00;102331.19;5057901;28;20046;-76
2022/11/30 03:33:16;;;;;;;20.23;7.75;;;;;;;6.95;100.00;102330.78;5057383;28;20151;-75
2022/11/30 03:35:42;;;;;;;13.75;7.57;;;;;;;6.95;100.00;102341.28;5058828;28;20115;-75
2022/11/30 03:38:07;;;;;;;13.45;5.65;;;;;;;6.98;100.00;102330.59;5059386;28;20462;-75
2022/11/30 03:40:34;;;;;;;16.27;6.78;;;;;;;6.86;100.00;102309.47;5057432;28;20032;-75
2022/11/30 03:43:00;;;;;;;13.73;6.30;;;;;;;7.00;100.00;102341.84;5057905;28;20035;-75
2022/11/30 03:45:25;;;;;;;12.57;6.57;;;;;;;7.08;100.00;102346.66;5056123;28;20123;-76
2022/11/30 03:47:50;;;;;;;10.43;6.57;;;;;;;7.00;100.00;102322.63;5041070;28;20032;-75
2022/11/30 03:50:16;;;;;;;13.77;5.85;;;;;;;6.93;100.00;102332.66;5055902;28;20095;-75
2022/11/30 03:52:41;;;;;;;17.00;7.05;;;;;;;7.05;100.00;102340.72;5026123;28;20037;-76
2022/11/30 03:55:07;;;;;;;15.73;7.60;;;;;;;7.03;100.00;102350.47;5040627;28;20036;-76
2022/11/30 03:57:33;;;;;;;12.90;8.48;;;;;;;6.99;100.00;102348.03;5055368;28;20408;-74
2022/11/30 03:59:58;;;;;;;13.70;7.72;;;;;;;7.01;100.00;102353.19;5058364;28;20056;-76
2022/11/30 04:02:23;;;;;;;15.00;8.40;;;;;;;7.08;100.00;102354.53;5057005;28;20496;-75
2022/11/30 04:04:49;;;;;;;14.82;6.45;;;;;;;7.12;100.00;102363.91;5057578;28;20047;-75
2022/11/30 04:07:14;;;;;;;12.15;6.65;;;;;;;7.14;100.00;102361.19;5056774;28;20083;-75
2022/11/30 04:09:39;;;;;;;12.27;6.90;;;;;;;7.09;100.00;102363.25;5042038;28;20032;-75
2022/11/30 04:12:05;;;;;;;17.42;8.63;;;;;;;7.07;100.00;102360.69;5058729;28;20024;-76
2022/11/30 04:14:31;;;;;;;11.25;7.18;;;;;;;7.05;100.00;102356.47;5055564;28;20503;-75
2022/11/30 04:16:56;;;;;;;14.20;6.97;;;;;;;7.11;100.00;102366.63;5056367;28;20035;-76
2022/11/30 04:19:21;;;;;;;12.20;7.13;;;;;;;7.06;100.00;102371.31;5058304;28;20052;-74
2022/11/30 04:21:47;;;;;;;15.02;6.47;;;;;;;7.09;100.00;102373.75;5058035;28;20135;-76
2022/11/30 04:24:12;;;;;;;16.40;8.10;;;;;;;7.06;100.00;102363.44;5058215;28;20091;-75
2022/11/30 04:26:37;;;;;;;14.48;7.13;;;;;;;7.00;100.00;102360.22;5040704;28;20028;-75
2022/11/30 04:29:04;;;;;;;17.90;7.90;;;;;;;6.98;100.00;102369.97;5056337;28;20515;-76
2022/11/30 04:31:29;;;;;;;14.32;8.00;;;;;;;6.83;100.00;102362.13;5041415;28;20476;-75
2022/11/30 04:33:55;;;;;;;11.07;6.88;;;;;;;6.88;100.00;102366.19;5040662;28;20033;-75
2022/11/30 04:36:20;;;;;;;12.05;7.22;;;;;;;6.85;100.00;102373.41;5057588;28;20040;-76
2022/11/30 04:38:46;;;;;;;9.75;6.38;;;;;;;6.74;100.00;102374.00;5057126;28;20035;-76
2022/11/30 04:41:12;;;;;;;11.20;6.50;;;;;;;6.79;100.00;102383.31;5055901;28;20046;-75
2022/11/30 04:43:37;;;;;;;9.68;5.28;;;;;;;6.87;100.00;102390.75;5056434;28;20525;-75
2022/11/30 04:46:04;;;;;;;23.02;6.88;;;;;;;6.84;100.00;102379.56;5041092;28;20033;-74
2022/11/30 04:48:29;;;;;;;19.08;7.20;;;;;;;6.83;100.00;102383.97;5056560;28;20479;-75
2022/11/30 04:51:04;;;;;;;18.60;7.93;;;;;;;6.78;100.00;102380.78;5058895;28;20055;-76
2022/11/30 04:53:30;;;;;;;14.02;7.30;;;;;;;6.56;100.00;102365.41;5061852;28;20029;-76
2022/11/30 04:55:55;;;;;;;9.63;6.30;;;;;;;6.67;100.00;102378.75;5044361;28;20037;-75
2022/11/30 04:58:20;;;;;;;13.85;9.00;;;;;;;6.59;100.00;102371.31;5061120;28;20489;-75
2022/11/30 05:00:46;;;;;;;17.98;8.88;;;;;;;6.66;100.00;102387.53;5062158;28;20042;-76
2022/11/30 05:03:11;;;;;;;20.38;7.20;;;;;;;6.61;100.00;102365.16;5060425;28;20036;-75
2022/11/30 05:05:36;;;;;;;9.02;5.95;;;;;;;6.56;100.00;102370.66;5061018;28;20039;-74
2022/11/30 05:08:02;;;;;;;10.57;6.38;;;;;;;6.62;100.00;102396.56;5058379;28;20033;-75
2022/11/30 05:10:28;;;;;;;14.88;8.25;;;;;;;6.58;100.00;102387.16;5061322;28;20036;-75
2022/11/30 05:12:55;;;;;;;11.88;7.85;;;;;;;6.53;100.00;102391.78;5067115;28;20025;-75
2022/11/30 05:15:21;;;;;;;13.60;7.22;;;;;;;6.43;100.00;102406.38;5061497;28;20041;-74
2022/11/30 05:17:46;;;;;;;11.15;6.68;;;;;;;6.44;100.00;102403.66;5060837;28;20415;-75
2022/11/30 05:20:11;;;;;;;18.67;7.30;;;;;;;6.53;100.00;102412.78;5061408;28;20042;-75
2022/11/30 05:22:37;;;;;;;9.82;7.07;;;;;;;6.40;100.00;102407.38;5060883;28;20082;-78
2022/11/30 05:25:03;;;;;;;14.95;7.28;;;;;;;6.28;100.00;102413.31;5060874;28;20028;-76
2022/11/30 05:27:28;;;;;;;15.48;8.55;;;;;;;6.37;100.00;102423.28;5059835;28;20035;-75
2022/11/30 05:29:53;;;;;;;14.90;7.35;;;;;;;6.35;100.00;102422.50;5060572;28;20021;-75
2022/11/30 05:32:19;;;;;;;9.55;5.47;;;;;;;6.32;100.00;102415.66;5060404;28;20041;-75
2022/11/30 05:34:44;;;;;;;10.57;6.75;;;;;;;6.41;100.00;102424.81;5059131;28;20035;-77
2022/11/30 05:37:09;;;;;;;16.50;6.82;;;;;;;6.45;100.00;102426.34;5043381;28;20898;-75
2022/11/30 05:39:35;;;;;;;16.75;7.82;;;;;;;6.55;100.00;102427.53;5060280;28;20033;-74
2022/11/30 05:42:00;;;;;;;11.02;7.35;;;;;;;6.56;100.00;102429.19;5058257;28;20028;-74
2022/11/30 05:44:25;;;;;;;13.85;7.13;;;;;;;6.52;100.00;102432.09;5042644;28;20045;-75
2022/11/30 05:46:51;;;;;;;15.07;8.23;;;;;;;6.54;100.00;102427.59;5042915;28;20079;-76
2022/11/30 05:49:16;;;;;;;12.88;8.20;;;;;;;6.37;100.00;102403.13;5059519;28;20036;-75
2022/11/30 05:51:41;;;;;;;14.05;6.80;;;;;;;6.55;100.00;102426.66;5060271;28;20033;-75
2022/11/30 05:54:07;;;;;;;17.63;6.82;;;;;;;6.48;100.00;102414.81;5060599;28;20034;-75
2022/11/30 05:56:32;;;;;;;12.55;7.50;;;;;;;6.52;100.00;102417.19;5059784;28;20029;-75
2022/11/30 05:58:58;;;;;;;13.10;5.45;;;;;;;6.58;100.00;102432.59;5058033;28;20054;-76
2022/11/30 06:01:25;;;;;;;17.65;6.70;;;;;;;6.56;100.00;102423.97;5060580;28;20630;-75
2022/11/30 06:03:52;;;;;;;12.50;6.13;;;;;;;6.61;100.00;102428.94;5059176;28;20024;-75
2022/11/30 06:06:18;;;;;;;10.55;5.97;;;;;;;6.63;100.00;102428.88;5059459;28;20060;-75
2022/11/30 06:08:44;;;;;;;12.98;6.28;;;;;;;6.59;100.00;102429.03;5049697;28;20037;-75
2022/11/30 06:11:10;;;;;;;12.55;7.43;;;;;;;6.51;100.00;102426.00;5040781;28;20115;-75
2022/11/30 06:13:35;;;;;;;7.47;5.03;;;;;;;6.54;100.00;102430.22;5058276;28;20135;-75
2022/11/30 06:16:02;;;;;;;11.55;6.90;;;;;;;6.51;100.00;102430.38;5057786;28;20772;-75
2022/11/30 06:18:28;;;;;;;9.98;4.72;;;;;;;6.40;100.00;102410.00;5059270;28;20135;-74
2022/11/30 06:20:54;;;;;;;11.10;5.63;;;;;;;6.44;100.00;102423.78;5054747;28;20036;-74
2022/11/30 06:23:19;;;;;;;11.07;6.60;;;;;;;6.36;100.00;102413.72;5056356;28;20459;-75
2022/11/30 06:25:44;;;;;;;9.25;5.18;;;;;;;6.32;100.00;102409.59;5039296;28;20123;-74
2022/11/30 06:28:10;;;;;;;6.38;5.07;;;;;;;6.42;100.00;102429.09;5054149;28;20048;-75
2022/11/30 06:30:36;;;;;;;10.95;5.43;;;;;;;6.42;100.00;102417.78;5055255;28;20033;-75
2022/11/30 06:33:02;;;;;;;8.70;4.68;;;;;;;6.52;100.00;102424.22;5055772;28;20040;-77
2022/11/30 06:35:28;;;;;;;9.10;5.65;;;;;;;6.50;100.00;102433.94;5055921;28;20040;-77
2022/11/30 06:37:54;;;;;;;7.97;4.78;;;;;;;6.52;100.00;102435.56;5055915;28;20443;-76
2022/11/30 06:40:19;;;;;;;8.60;5.03;;;;;;;6.51;100.00;102436.50;5053866;28;20048;-75
2022/11/30 06:42:45;;;;;;;7.63;4.88;;;;;;;6.46;100.00;102428.00;5056298;28;20124;-75
2022/11/30 06:45:11;;;;;;;7.00;5.07;;;;;;;6.53;100.00;102439.00;5055977;28;20029;-75
2022/11/30 06:47:37;;;;;;;8.23;5.53;;;;;;;6.57;100.00;102446.63;5056954;28;20037;-75
2022/11/30 06:50:02;;;;;;;9.52;5.70;;;;;;;6.50;100.00;102444.44;5056893;28;20024;-78
2022/11/30 06:52:32;;;;;;;8.82;5.00;;;;;;;6.28;100.00;102422.00;5056604;28;20032;-78
2022/11/30 06:54:57;;;;;;;6.35;4.40;;;;;;;6.33;100.00;102424.38;5036379;28;20415;-80
2022/11/30 06:57:27;;;;;;;4.97;3.00;;;;;;;6.44;100.00;102434.28;5040453;28;20094;-77
2022/11/30 06:59:52;;;;;;;8.70;4.80;;;;;;;6.56;100.00;102454.59;5071845;28;20052;-76
2022/11/30 07:02:18;;;;;;;9.50;5.30;;;;;;;6.42;100.00;102442.22;5056709;28;20224;-76
2022/11/30 07:04:43;;;;;;;4.57;3.95;;;;;;;6.50;100.00;102450.53;5040803;28;20040;-77
2022/11/30 07:07:09;;;;;;;4.65;3.60;;;;;;;6.42;100.00;102449.25;5023706;28;20511;-77
2022/11/30 07:09:34;;;;;;;8.25;4.20;;;;;;;6.35;100.00;102448.75;5037909;28;20028;-76
2022/11/30 07:12:00;;;;;;;6.82;4.82;;;;;;;6.45;100.00;102464.84;5039958;28;20102;-77
2022/11/30 07:14:26;;;;;;;8.40;4.43;;;;;;;6.45;100.00;102468.28;5039970;28;20017;-78
2022/11/30 07:16:51;;;;;;;8.43;5.32;;;;;;;6.29;100.00;102451.69;5056324;28;20487;-76
2022/11/30 07:19:17;;;;;;;6.28;5.00;;;;;;;6.29;100.00;102459.56;5054774;28;20049;-76
2022/11/30 07:21:42;;;;;;;7.47;5.45;;;;;;;6.41;100.00;102466.78;5056665;28;20044;-77
2022/11/30 07:26:54;;;;;;;7.07;4.03;;;;;;;6.44;100.00;102471.00;5058333;28;20044;-76
2022/11/30 07:29:20;;;;;;;12.40;5.22;;;;;;;6.39;100.00;102466.84;5038948;28;20029;-76
2022/11/30 07:31:50;;;;;;;12.27;5.65;;;;;;;6.47;100.00;102482.19;5056385;28;20064;-77
2022/11/30 07:34:16;;;;;;;9.90;5.45;;;;;;;6.47;100.00;102479.56;5055668;28;20074;-77
2022/11/30 07:36:41;;;;;;;11.25;5.82;;;;;;;6.47;100.00;102486.59;5057896;28;20399;-76
2022/11/30 07:39:06;;;;;;;10.40;4.95;;;;;;;6.32;100.00;102472.53;5056940;28;20032;-76
2022/11/30 07:41:32;;;;;;;10.95;5.65;;;;;;;6.35;100.00;102480.22;5039294;28;20041;-78
2022/11/30 07:43:58;;;;;;;9.00;5.22;;;;;;;6.41;100.00;102493.00;5055025;28;20024;-75
2022/11/30 07:46:23;;;;;;;7.07;4.90;;;;;;;6.36;100.00;102495.88;5023955;28;20028;-75
2022/11/30 07:48:49;;;;;;;11.20;5.78;;;;;;;6.34;100.00;102491.63;5055019;28;20483;-75
2022/11/30 07:51:17;;;;;;;9.88;5.30;;;;;;;6.44;100.00;102497.22;5055546;28;20115;-75
2022/11/30 07:53:43;;;;;;;13.95;6.72;;;;;;;6.35;100.00;102488.06;5057062;28;20090;-77
2022/11/30 07:56:14;;;;;;;9.25;5.80;;;;;;;6.38;100.00;102482.69;5057097;28;20446;-77
2022/11/30 07:58:40;;;;;;;13.35;6.55;;;;;;;6.39;100.00;102497.47;5061577;28;20054;-77
2022/11/30 08:01:09;;;;;;;15.48;5.85;;;;;;;6.41;100.00;102495.63;5055957;28;20773;-77
2022/11/30 08:03:35;;;;;;;13.57;6.22;;;;;;;6.44;100.00;102505.09;5055444;28;20025;-77
2022/11/30 08:06:12;;;;;;;13.90;7.07;;;;;;;6.43;100.00;102509.50;5055274;28;20033;-77
2022/11/30 08:08:40;;;;;;;10.77;5.20;;;;;;;6.54;100.00;102524.66;5056176;28;20020;-76
2022/11/30 08:11:07;;;;;;;15.50;6.15;;;;;;;6.47;100.00;102524.16;5062071;28;20889;-75
2022/11/30 08:13:33;;;;;;;11.63;6.80;;;;;;;6.53;100.00;102523.81;5055744;28;20082;-76
2022/11/30 08:16:07;;;;;;;10.65;5.55;;;;;;;6.53;100.00;102530.81;5055312;28;20577;-76
2022/11/30 08:18:33;;;;;;;11.95;7.57;;;;;;;6.16;100.00;102480.34;5055896;28;20056;-76
2022/11/30 08:21:00;;;;;;;9.88;5.75;;;;;;;6.36;100.00;102511.59;5054811;28;20098;-76
2022/11/30 08:23:35;;;;;;;9.93;6.25;;;;;;;6.47;100.00;102532.00;5053789;28;20040;-77
2022/11/30 08:26:02;;;;;;;12.73;6.45;;;;;;;6.53;100.00;102534.31;5056257;28;20653;-75
2022/11/30 08:28:29;;;;;;;16.73;7.72;;;;;;;6.55;100.00;102542.94;5054831;28;20036;-76
2022/11/30 08:30:58;;;;;;;13.07;6.68;;;;;;;6.43;100.00;102543.59;5070311;28;20039;-74
2022/11/30 08:33:23;;;;;;;11.73;7.68;;;;;;;6.51;100.00;102535.31;5055492;28;20137;-75
2022/11/30 08:35:49;;;;;;;12.55;7.40;;;;;;;6.61;100.00;102540.91;5038816;28;20025;-75
2022/11/30 08:38:14;;;;;;;15.93;8.35;;;;;;;6.59;100.00;102544.44;5056602;28;20151;-78
2022/11/30 08:40:40;;;;;;;15.05;7.00;;;;;;;6.56;100.00;102546.41;5055083;28;20025;-76
2022/11/30 08:43:05;;;;;;;13.40;7.30;;;;;;;6.65;100.00;102545.06;5056027;28;20031;-75
2022/11/30 08:45:30;;;;;;;18.58;6.65;;;;;;;6.59;100.00;102551.47;5039774;28;20054;-74
2022/11/30 08:47:56;;;;;;;13.00;7.63;;;;;;;6.47;100.00;102545.13;5054516;28;20040;-78
2022/11/30 08:50:21;;;;;;;14.60;7.78;;;;;;;6.46;100.00;102551.28;5055828;28;20107;-75
2022/11/30 08:52:47;;;;;;;13.57;7.60;;;;;;;6.57;100.00;102545.47;5055793;28;20044;-75
2022/11/30 08:55:12;;;;;;;16.92;8.35;;;;;;;6.57;100.00;102545.47;5038496;28;20111;-75
2022/11/30 08:57:37;;;;;;;15.63;8.40;;;;;;;6.55;100.00;102560.44;5021531;28;20198;-77
2022/11/30 09:00:04;;;;;;;12.90;8.07;;;;;;;6.53;100.00;102543.94;5054302;28;20662;-75
2022/11/30 09:02:29;;;;;;;12.48;6.88;;;;;;;6.57;100.00;102562.06;5039893;28;20546;-75
2022/11/30 09:04:54;;;;;;;22.90;6.50;;;;;;;6.69;100.00;102560.56;5055946;28;20048;-74
2022/11/30 09:07:20;;;;;;;18.95;7.85;;;;;;;6.61;100.00;102551.41;5039262;28;20036;-79
2022/11/30 09:09:46;;;;;;;14.75;7.35;;;;;;;6.66;100.00;102554.63;5054233;28;20024;-76
2022/11/30 09:12:11;;;;;;;12.40;7.25;;;;;;;6.64;100.00;102546.84;5053932;28;20070;-77
2022/11/30 09:14:36;;;;;;;17.90;8.65;;;;;;;6.86;100.00;102569.28;5055754;28;20120;-76
2022/11/30 09:17:03;;;;;;;13.15;6.07;;;;;;;6.83;100.00;102565.06;5038536;28;20502;-76
2022/11/30 09:19:28;;;;;;;14.32;8.70;;;;;;;6.87;100.00;102563.13;5054321;28;20461;-76
2022/11/30 09:21:54;;;;;;;14.27;6.90;;;;;;;6.86;100.00;102553.53;5054413;28;20075;-76
2022/11/30 09:24:19;;;;;;;15.88;7.30;;;;;;;6.76;100.00;102543.56;5053802;28;20033;-75
2022/11/30 09:26:45;;;;;;;16.23;7.50;;;;;;;6.95;100.00;102561.78;5038897;28;20021;-75
2022/11/30 09:29:10;;;;;;;11.23;6.30;;;;;;;6.93;100.00;102557.53;5039671;28;20059;-77
2022/11/30 09:31:36;;;;;;;17.50;8.43;;;;;;;6.98;100.00;102560.75;5053935;28;20479;-76
2022/11/30 09:34:01;;;;;;;15.55;7.80;;;;;;;7.10;100.00;102565.34;5038566;28;20064;-75
2022/11/30 09:36:27;;;;;;;13.25;6.70;;;;;;;6.99;100.00;102552.78;5055720;28;20035;-76
2022/11/30 09:38:54;;;;;;;14.27;7.63;;;;;;;7.02;100.00;102558.81;5055454;28;20888;-75
2022/11/30 09:41:37;;;;;;;20.38;8.57;;;;;;;7.12;100.00;102567.84;5058289;28;20051;-76
2022/11/30 09:44:31;;;;;;;12.20;7.28;;;;;;;7.20;100.00;102571.75;5057099;28;20028;-75
2022/11/30 09:47:23;;;;;;;17.92;8.15;;;;;;;7.13;100.00;102553.81;5059724;28;20071;-75
2022/11/30 09:49:48;;;;;;;17.92;7.68;;;;;;;7.06;100.00;102552.47;5058501;28;20032;-77
2022/11/30 09:52:24;;;;;;;12.55;6.63;;;;;;;7.04;100.00;102552.53;5040484;28;20029;-77
2022/11/30 09:54:49;;;;;;;11.55;7.03;;;;;;;7.12;100.00;102552.09;5057239;28;20036;-77
2022/11/30 09:57:43;;;;;;;9.45;6.30;;;;;;;7.18;100.00;102567.50;5041900;28;20044;-74
2022/11/30 10:00:23;;;;;;;12.25;6.35;;;;;;;7.36;100.00;102566.50;5056703;28;20154;-76
2022/11/30 10:02:51;;;;;;;12.82;6.22;;;;;;;7.22;100.00;102561.16;5057080;28;20071;-77
2022/11/30 10:05:18;;;;;;;14.35;8.05;;;;;;;7.20;100.00;102566.50;5056737;28;20117;-77
2022/11/30 10:07:49;;;;;;;15.90;8.50;;;;;;;7.08;100.00;102568.97;5057082;28;20102;-76
2022/11/30 10:10:38;;;;;;;11.02;5.90;;;;;;;6.90;100.00;102549.81;5058248;28;20116;-75
2022/11/30 10:13:14;;;;;;;16.50;6.82;;;;;;;7.13;100.00;102567.78;5058066;28;20025;-78
2022/11/30 10:16:17;;;;;;;8.23;5.95;;;;;;;7.21;100.00;102573.44;5059209;28;20472;-76
2022/11/30 10:19:16;;;;;;;10.38;6.70;;;;;;;7.32;100.00;102569.38;5058467;28;20044;-77
2022/11/30 10:22:01;;;;;;;8.90;6.10;;;;;;;7.38;100.00;102569.88;5058215;28;20029;-75
2022/11/30 10:24:54;;;;;;;11.50;5.95;;;;;;;7.30;100.00;102560.75;5074471;28;20464;-75
2022/11/30 10:27:32;;;;;;;14.23;8.00;;;;;;;7.41;100.00;102556.56;5058173;28;20672;-75
2022/11/30 10:30:00;;;;;;;15.30;5.80;;;;;;;7.58;100.00;102563.50;5057513;28;20025;-76
2022/11/30 10:32:34;;;;;;;14.40;6.00;;;;;;;7.31;100.00;102555.38;5064758;28;20048;-75
2022/11/30 10:35:21;;;;;;;14.20;7.00;;;;;;;7.53;100.00;102557.63;5058242;28;20074;-76
2022/11/30 10:37:50;;;;;;;11.85;5.93;;;;;;;7.70;100.00;102559.28;5057236;28;20593;-74
2022/11/30 10:40:27;;;;;;;16.33;6.15;;;;;;;7.63;100.00;102536.94;5057591;28;20048;-74
2022/11/30 10:43:10;;;;;;;15.85;7.78;;;;;;;7.85;100.00;102556.72;5057786;28;20032;-76
2022/11/30 10:45:43;;;;;;;11.57;6.22;;;;;;;7.66;100.00;102563.03;5057388;28;20075;-77
2022/11/30 10:48:18;;;;;;;12.15;6.10;;;;;;;7.70;100.00;102547.94;5057207;28;20036;-75
2022/11/30 10:50:43;;;;;;;15.25;7.43;;;;;;;7.79;100.00;102558.75;5064788;28;20048;-75
2022/11/30 10:53:11;;;;;;;12.70;7.45;;;;;;;7.63;100.00;102552.72;5056763;28;20120;-76
2022/11/30 10:55:43;;;;;;;10.13;6.18;;;;;;;7.68;100.00;102550.66;5056525;28;20028;-77
2022/11/30 10:58:21;;;;;;;11.23;6.53;;;;;;;7.76;100.00;102558.94;5057455;28;20028;-74
2022/11/30 11:00:59;;;;;;;11.88;7.50;;;;;;;7.65;100.00;102556.09;5058387;28;20032;-76
2022/11/30 11:03:25;;;;;;;16.05;6.95;;;;;;;7.48;100.00;102525.53;5055161;28;20142;-74
2022/11/30 11:06:06;;;;;;;20.02;8.02;;;;;;;7.70;100.00;102561.06;5063929;28;20032;-76
2022/11/30 11:08:32;;;;;;;11.07;5.90;;;;;;;7.60;100.00;102553.75;5064726;28;20071;-75
2022/11/30 11:10:57;;;;;;;12.55;6.57;;;;;;;7.61;100.00;102544.06;5058063;28;20103;-74
2022/11/30 11:13:37;;;;;;;15.18;6.28;;;;;;;7.46;100.00;102539.69;5055638;28;20031;-75
2022/11/30 11:16:03;;;;;;;9.25;6.00;;;;;;;7.57;100.00;102560.94;5056089;28;20040;-74
2022/11/30 11:18:31;;;;;;;16.67;7.85;;;;;;;7.51;100.00;102553.41;5056428;28;20061;-76
2022/11/30 11:21:08;;;;;;;7.68;5.10;;;;;;;7.56;100.00;102572.41;5056990;28;20432;-75
2022/11/30 11:23:37;;;;;;;13.10;7.25;;;;;;;7.46;100.00;102542.31;5057101;28;20021;-75
2022/11/30 11:26:14;;;;;;;15.13;7.65;;;;;;;7.62;100.00;102566.75;5056413;28;20036;-75
2022/11/30 11:28:44;;;;;;;14.02;6.57;;;;;;;7.41;100.00;102548.69;5063240;28;20052;-75